createdAt,value
2018-07-20T00:01:59.672Z,5.00
2018-07-20T00:04:27.735Z,3.75
2018-07-20T00:06:55.761Z,3.70
2018-07-20T00:09:23.784Z,7.72
2018-07-20T00:11:51.816Z,5.22
2018-07-20T00:14:19.848Z,6.20
2018-07-20T00:16:47.896Z,7.67
2018-07-20T00:19:15.930Z,3.95
2018-07-20T00:21:43.979Z,4.33
2018-07-20T00:24:12.015Z,3.37
2018-07-20T00:26:40.063Z,2.00
2018-07-20T00:29:08.092Z,4.40
2018-07-20T00:31:36.217Z,4.00
2018-07-20T00:34:04.276Z,9.58
2018-07-20T00:36:32.296Z,2.87
2018-07-20T00:39:00.332Z,2.80
2018-07-20T00:41:28.364Z,8.18
2018-07-20T00:43:56.392Z,3.83
2018-07-20T00:46:24.405Z,9.90
2018-07-20T00:48:52.439Z,3.05
2018-07-20T00:51:20.515Z,3.17
2018-07-20T00:53:48.547Z,2.75
2018-07-20T00:56:16.576Z,2.65
2018-07-20T00:58:44.604Z,3.33
2018-07-20T01:01:12.655Z,3.15
2018-07-20T01:03:40.719Z,2.85
2018-07-20T01:06:08.753Z,2.83
2018-07-20T01:08:36.832Z,4.85
2018-07-20T01:11:05.057Z,2.20
2018-07-20T01:13:33.100Z,3.90
2018-07-20T01:16:01.147Z,3.33
2018-07-20T01:18:29.188Z,5.85
2018-07-20T01:20:57.223Z,3.25
2018-07-20T01:23:25.276Z,3.35
2018-07-20T01:25:53.332Z,3.25
2018-07-20T01:28:21.363Z,5.72
2018-07-20T01:30:49.402Z,3.75
2018-07-20T01:33:17.456Z,4.78
2018-07-20T01:35:45.492Z,2.42
2018-07-20T01:38:13.520Z,2.42
2018-07-20T01:40:41.567Z,3.25
2018-07-20T01:43:09.972Z,1.87
2018-07-20T01:45:38.004Z,3.80
2018-07-20T01:48:06.031Z,4.15
2018-07-20T01:50:34.072Z,3.10
2018-07-20T01:53:02.119Z,3.05
2018-07-20T01:55:30.153Z,3.52
2018-07-20T01:57:58.247Z,3.35
2018-07-20T02:00:26.330Z,3.77
2018-07-20T02:02:54.361Z,2.20
2018-07-20T02:05:22.399Z,2.90
2018-07-20T02:07:50.424Z,5.95
2018-07-20T02:10:18.468Z,4.10
2018-07-20T02:12:46.698Z,3.62
2018-07-20T02:15:14.732Z,3.10
2018-07-20T02:17:42.776Z,2.55
2018-07-20T02:20:10.865Z,1.98
2018-07-20T02:22:38.901Z,5.00
2018-07-20T02:25:06.933Z,3.15
2018-07-20T02:27:34.981Z,4.00
2018-07-20T02:30:03.025Z,4.75
2018-07-20T02:32:31.058Z,1.70
2018-07-20T02:34:59.108Z,3.33
2018-07-20T02:37:27.163Z,3.67
2018-07-20T02:39:55.189Z,2.15
2018-07-20T02:42:23.212Z,2.90
2018-07-20T02:44:51.248Z,2.55
2018-07-20T02:47:19.284Z,3.35
2018-07-20T02:49:47.332Z,1.95
2018-07-20T02:52:15.369Z,3.70
2018-07-20T02:54:43.423Z,8.43
2018-07-20T02:57:11.450Z,3.45
2018-07-20T02:59:39.512Z,4.33
2018-07-20T03:02:07.559Z,2.70
2018-07-20T03:04:35.640Z,1.75
2018-07-20T03:07:03.672Z,4.45
2018-07-20T03:09:31.731Z,2.20
2018-07-20T03:11:59.768Z,3.45
2018-07-20T03:14:27.803Z,1.90
2018-07-20T03:16:55.820Z,12.70
2018-07-20T03:19:23.866Z,1.92
2018-07-20T03:21:51.892Z,5.95
2018-07-20T03:24:19.939Z,2.22
2018-07-20T03:26:47.969Z,8.05
2018-07-20T03:29:15.992Z,3.25
2018-07-20T03:31:44.038Z,2.83
2018-07-20T03:34:12.064Z,2.47
2018-07-20T03:36:40.125Z,3.22
2018-07-20T03:39:09.171Z,2.22
2018-07-20T03:41:38.020Z,3.30
2018-07-20T03:44:06.491Z,4.42
2018-07-20T03:46:34.567Z,2.42
2018-07-20T03:49:02.617Z,5.62
2018-07-20T03:51:30.683Z,3.70
2018-07-20T03:53:58.728Z,3.92
2018-07-20T03:56:26.795Z,2.55
2018-07-20T03:58:54.876Z,2.10
2018-07-20T04:01:22.916Z,3.17
2018-07-20T04:03:50.971Z,8.73
2018-07-20T04:06:19.008Z,2.33
2018-07-20T04:08:47.040Z,3.42
2018-07-20T04:11:15.076Z,2.25
2018-07-20T04:13:43.132Z,2.72
2018-07-20T04:16:11.164Z,3.15
2018-07-20T04:18:39.209Z,3.22
2018-07-20T04:21:07.319Z,3.85
2018-07-20T04:23:35.347Z,5.20
2018-07-20T04:26:03.383Z,2.60
2018-07-20T04:28:31.408Z,2.05
2018-07-20T04:30:59.452Z,3.02
2018-07-20T04:33:27.496Z,2.42
2018-07-20T04:35:55.566Z,2.37
2018-07-20T04:38:23.583Z,3.33
2018-07-20T04:40:51.624Z,2.72
2018-07-20T04:43:19.647Z,3.15
2018-07-20T04:45:47.711Z,2.83
2018-07-20T04:48:15.744Z,18.42
2018-07-20T04:50:43.815Z,2.80
2018-07-20T04:53:11.851Z,3.65
2018-07-20T04:55:39.888Z,3.22
2018-07-20T04:58:07.908Z,4.45
2018-07-20T05:00:35.965Z,4.22
2018-07-20T05:03:04.000Z,4.45
2018-07-20T05:05:32.075Z,4.78
2018-07-20T05:08:00.096Z,3.10
2018-07-20T05:10:28.123Z,3.52
2018-07-20T05:12:56.183Z,3.67
2018-07-20T05:15:24.200Z,3.67
2018-07-20T05:17:52.243Z,3.77
2018-07-20T05:20:20.275Z,10.23
2018-07-20T05:22:48.316Z,3.65
2018-07-20T05:25:16.369Z,4.85
2018-07-20T05:27:44.409Z,3.30
2018-07-20T05:30:12.445Z,3.98
2018-07-20T05:32:40.557Z,6.83
2018-07-20T05:35:08.523Z,4.22
2018-07-20T05:37:36.564Z,2.70
2018-07-20T05:40:04.627Z,3.30
2018-07-20T05:42:32.738Z,4.10
2018-07-20T05:45:00.766Z,3.20
2018-07-20T05:47:28.799Z,3.30
2018-07-20T05:49:56.821Z,3.58
2018-07-20T05:52:24.883Z,3.00
2018-07-20T05:54:52.931Z,5.83
2018-07-20T05:57:20.972Z,4.33
2018-07-20T05:59:48.996Z,3.25
2018-07-20T06:02:17.298Z,5.50
2018-07-20T06:04:45.324Z,5.10
2018-07-20T06:07:13.379Z,4.20
2018-07-20T06:09:41.411Z,4.05
2018-07-20T06:12:09.475Z,4.22
2018-07-20T06:14:37.503Z,2.87
2018-07-20T06:17:05.622Z,3.52
2018-07-20T06:19:33.697Z,5.45
2018-07-20T06:22:01.733Z,5.67
2018-07-20T06:24:29.772Z,5.20
2018-07-20T06:26:57.806Z,3.72
2018-07-20T06:29:25.839Z,3.40
2018-07-20T06:31:53.873Z,2.75
2018-07-20T06:34:21.905Z,2.92
2018-07-20T06:36:49.944Z,4.65
2018-07-20T06:39:17.980Z,3.90
2018-07-20T06:41:46.056Z,3.70
2018-07-20T06:44:14.140Z,5.17
2018-07-20T06:46:42.171Z,3.75
2018-07-20T06:49:10.209Z,8.10
2018-07-20T06:51:38.323Z,4.75
2018-07-20T06:54:06.368Z,4.03
2018-07-20T06:56:34.476Z,3.00
2018-07-20T06:59:02.512Z,3.90
2018-07-20T07:01:30.651Z,4.72
2018-07-20T07:03:58.711Z,4.75
2018-07-20T07:06:26.844Z,4.10
2018-07-20T07:08:54.876Z,4.55
2018-07-20T07:11:22.904Z,2.95
2018-07-20T07:13:50.955Z,9.33
2018-07-20T07:16:19.012Z,6.50
2018-07-20T07:18:47.057Z,4.30
2018-07-20T07:21:15.103Z,4.45
2018-07-20T07:23:43.249Z,5.05
2018-07-20T07:26:11.212Z,3.60
2018-07-20T07:28:39.260Z,3.75
2018-07-20T07:31:07.779Z,5.33
2018-07-20T07:33:35.812Z,4.37
2018-07-20T07:36:03.868Z,5.67
2018-07-20T07:38:31.927Z,5.83
2018-07-20T07:40:59.960Z,8.05
2018-07-20T07:43:28.014Z,8.63
2018-07-20T07:45:56.080Z,6.55
2018-07-20T07:48:24.159Z,10.65
2018-07-20T07:50:52.263Z,6.95
2018-07-20T07:53:20.331Z,7.10
2018-07-20T07:55:48.392Z,11.68
2018-07-20T07:58:16.448Z,7.90
2018-07-20T08:00:44.493Z,11.05
2018-07-20T08:03:12.620Z,5.62
2018-07-20T08:05:40.595Z,13.08
2018-07-20T08:08:08.675Z,6.95
2018-07-20T08:10:36.747Z,8.53
2018-07-20T08:13:04.796Z,6.12
2018-07-20T08:15:32.859Z,5.45
2018-07-20T08:18:00.904Z,10.25
2018-07-20T08:20:28.940Z,9.73
2018-07-20T08:22:57.081Z,5.28
2018-07-20T08:25:25.051Z,11.12
2018-07-20T08:27:53.740Z,11.43
2018-07-20T08:30:21.780Z,12.75
2018-07-20T08:32:49.849Z,15.30
2018-07-20T08:35:17.931Z,13.80
2018-07-20T08:37:45.992Z,10.32
2018-07-20T08:40:14.061Z,16.50
2018-07-20T08:42:42.120Z,18.50
2018-07-20T08:45:10.175Z,15.55
2018-07-20T08:47:38.293Z,17.65
2018-07-20T08:50:06.591Z,14.47
2018-07-20T08:52:34.668Z,10.95
2018-07-20T08:55:02.716Z,17.57
2018-07-20T08:57:30.769Z,14.13
2018-07-20T08:59:58.923Z,8.20
2018-07-20T09:02:26.940Z,23.22
2018-07-20T09:04:55.000Z,19.30
2018-07-20T09:07:23.058Z,15.38
2018-07-20T09:09:51.128Z,13.50
2018-07-20T09:12:19.171Z,14.73
2018-07-20T09:14:47.245Z,15.00
2018-07-20T09:17:15.292Z,21.40
2018-07-20T09:19:43.390Z,12.53
2018-07-20T09:22:11.420Z,18.80
2018-07-20T09:24:39.503Z,19.62
2018-07-20T09:27:07.551Z,23.75
2018-07-20T09:29:35.624Z,20.77
2018-07-20T09:32:03.668Z,22.58
2018-07-20T09:34:31.808Z,28.47
2018-07-20T09:36:59.879Z,28.23
2018-07-20T09:39:27.967Z,27.98
2018-07-20T09:41:56.009Z,28.07
2018-07-20T09:44:24.100Z,25.95
2018-07-20T09:46:52.117Z,27.87
2018-07-20T09:49:20.167Z,33.95
2018-07-20T09:51:48.243Z,32.75
2018-07-20T09:54:16.299Z,28.55
2018-07-20T09:56:44.452Z,27.17
2018-07-20T09:59:12.552Z,30.00
2018-07-20T10:01:40.597Z,36.05
2018-07-20T10:04:08.667Z,29.48
2018-07-20T10:06:36.780Z,22.87
2018-07-20T10:09:08.075Z,41.45
2018-07-20T10:11:36.164Z,30.80
2018-07-20T10:14:04.204Z,49.85
2018-07-20T10:16:32.319Z,34.48
2018-07-20T10:19:00.416Z,38.98
2018-07-20T10:21:28.433Z,42.15
2018-07-20T10:23:56.503Z,45.80
2018-07-20T10:26:24.536Z,26.35
2018-07-20T10:28:52.592Z,22.87
2018-07-20T10:31:20.624Z,16.20
2018-07-20T10:33:48.681Z,40.05
2018-07-20T10:36:16.728Z,35.13
2018-07-20T10:38:44.772Z,32.88
2018-07-20T10:41:12.812Z,48.70
2018-07-20T10:43:40.883Z,32.85
2018-07-20T10:46:08.991Z,34.75
2018-07-20T10:48:37.033Z,35.78
2018-07-20T10:51:05.088Z,31.82
2018-07-20T10:53:33.155Z,36.88
2018-07-20T10:56:01.209Z,35.13
2018-07-20T10:58:29.283Z,36.93
2018-07-20T11:00:57.348Z,26.52
2018-07-20T11:03:25.393Z,47.35
2018-07-20T11:05:53.456Z,40.12
2018-07-20T11:08:21.523Z,27.40
2018-07-20T11:10:49.612Z,29.10
2018-07-20T11:13:17.652Z,37.50
2018-07-20T11:15:45.733Z,54.38
2018-07-20T11:18:13.772Z,54.93
2018-07-20T11:20:41.820Z,33.83
2018-07-20T11:23:09.924Z,44.30
2018-07-20T11:25:37.975Z,42.80
2018-07-20T11:28:06.068Z,46.83
2018-07-20T11:30:34.087Z,38.28
2018-07-20T11:33:02.131Z,40.50
2018-07-20T11:35:30.205Z,72.47
2018-07-20T11:37:58.271Z,62.45
2018-07-20T11:40:26.352Z,70.95
2018-07-20T11:42:54.448Z,43.05
2018-07-20T11:45:22.520Z,51.42
2018-07-20T11:47:50.579Z,47.23
2018-07-20T11:50:18.656Z,64.05
2018-07-20T11:52:46.732Z,57.98
2018-07-20T11:55:14.786Z,47.80
2018-07-20T11:57:42.868Z,64.05
2018-07-20T12:00:10.935Z,52.38
2018-07-20T12:02:39.004Z,46.83
2018-07-20T12:05:07.084Z,54.03
2018-07-20T12:07:35.139Z,69.97
2018-07-20T12:10:03.224Z,42.80
2018-07-20T12:12:31.285Z,70.10
2018-07-20T12:14:59.339Z,67.63
2018-07-20T12:17:27.404Z,49.80
2018-07-20T12:19:55.479Z,57.23
2018-07-20T12:22:24.313Z,66.67
2018-07-20T12:24:52.380Z,78.53
2018-07-20T12:27:20.424Z,53.80
2018-07-20T12:29:48.496Z,99.60
2018-07-20T12:32:16.580Z,76.00
2018-07-20T12:34:44.616Z,76.73
2018-07-20T12:37:12.691Z,67.73
2018-07-20T12:39:40.737Z,79.30
2018-07-20T12:42:08.783Z,78.53
2018-07-20T12:44:36.828Z,76.40
2018-07-20T12:47:04.904Z,79.43
2018-07-20T12:49:32.943Z,59.50
2018-07-20T12:52:01.001Z,48.43
2018-07-20T12:54:29.036Z,60.30
2018-07-20T12:56:57.085Z,66.57
2018-07-20T12:59:25.117Z,90.07
2018-07-20T13:01:53.193Z,67.23
2018-07-20T13:04:21.295Z,84.10
2018-07-20T13:06:49.340Z,70.07
2018-07-20T13:09:17.397Z,79.97
2018-07-20T13:11:45.550Z,79.30
2018-07-20T13:14:13.568Z,74.70
2018-07-20T13:16:42.239Z,75.20
2018-07-20T13:19:10.290Z,69.23
2018-07-20T13:21:38.391Z,76.43
2018-07-20T13:24:06.675Z,64.90
2018-07-20T13:26:34.735Z,86.97
2018-07-20T13:29:02.799Z,78.97
2018-07-20T13:31:30.863Z,95.10
2018-07-20T13:33:58.896Z,72.27
2018-07-20T13:36:26.975Z,93.63
2018-07-20T13:38:55.017Z,66.03
2018-07-20T13:41:23.068Z,77.50
2018-07-20T13:43:51.135Z,64.30
2018-07-20T13:46:19.210Z,67.93
2018-07-20T13:48:47.288Z,63.87
2018-07-20T13:51:15.361Z,56.77
2018-07-20T13:53:43.415Z,49.97
2018-07-20T13:56:11.493Z,66.00
2018-07-20T13:58:39.527Z,63.73
2018-07-20T14:01:07.590Z,58.23
2018-07-20T14:03:35.677Z,55.03
2018-07-20T14:06:03.768Z,69.80
2018-07-20T14:08:31.816Z,53.40
2018-07-20T14:10:59.867Z,71.73
2018-07-20T14:13:27.940Z,65.90
2018-07-20T14:15:55.980Z,84.07
2018-07-20T14:18:24.050Z,98.90
2018-07-20T14:20:52.131Z,107.63
2018-07-20T14:23:20.203Z,67.43
2018-07-20T14:25:48.247Z,85.03
2018-07-20T14:28:16.287Z,77.00
2018-07-20T14:30:44.422Z,69.83
2018-07-20T14:33:12.501Z,107.00
2018-07-20T14:35:40.551Z,89.63
2018-07-20T14:38:08.612Z,86.27
2018-07-20T14:40:36.668Z,68.17
2018-07-20T14:43:04.802Z,68.93
2018-07-20T14:45:32.811Z,75.63
2018-07-20T14:48:00.895Z,67.70
2018-07-20T14:50:28.940Z,79.53
2018-07-20T14:52:57.027Z,87.57
2018-07-20T14:55:25.076Z,85.57
2018-07-20T14:57:53.129Z,83.50
2018-07-20T15:00:21.188Z,67.67
2018-07-20T15:02:49.256Z,88.57
2018-07-20T15:05:17.314Z,73.13
2018-07-20T15:07:45.366Z,99.57
2018-07-20T15:10:13.426Z,76.67
2018-07-20T15:12:41.513Z,81.87
2018-07-20T15:15:09.784Z,123.93
2018-07-20T15:17:38.167Z,84.50
2018-07-20T15:20:06.316Z,106.70
2018-07-20T15:22:34.639Z,116.20
2018-07-20T15:25:02.672Z,88.50
2018-07-20T15:27:30.780Z,67.17
2018-07-20T15:29:58.823Z,97.37
2018-07-20T15:32:26.864Z,87.40
2018-07-20T15:34:54.924Z,80.67
2018-07-20T15:37:22.975Z,81.97
2018-07-20T15:39:51.085Z,100.97
2018-07-20T15:42:19.104Z,95.70
2018-07-20T15:44:47.220Z,62.50
2018-07-20T15:47:15.344Z,83.90
2018-07-20T15:49:43.337Z,90.27
2018-07-20T15:54:39.449Z,64.60
2018-07-20T15:57:07.636Z,59.13
2018-07-20T15:59:35.725Z,82.02
2018-07-20T16:02:04.029Z,66.57
2018-07-20T16:04:32.116Z,73.10
2018-07-20T16:07:00.231Z,73.22
2018-07-20T16:09:28.324Z,76.25
2018-07-20T16:11:56.379Z,71.12
2018-07-20T16:14:24.424Z,74.50
2018-07-20T16:16:52.468Z,71.67
2018-07-20T16:19:20.530Z,78.83
2018-07-20T16:21:48.572Z,59.55
2018-07-20T16:24:16.629Z,73.80
2018-07-20T16:26:44.692Z,87.80
2018-07-20T16:29:12.747Z,80.80
2018-07-20T16:31:40.788Z,71.97
2018-07-20T16:34:08.876Z,77.67
2018-07-20T16:36:36.939Z,45.33
2018-07-20T16:39:07.532Z,49.48
2018-07-20T16:41:35.571Z,60.70
2018-07-20T16:44:03.628Z,56.60
2018-07-20T16:46:31.676Z,71.92
2018-07-20T16:48:59.737Z,50.70
2018-07-20T16:51:27.836Z,61.55
2018-07-20T16:53:55.887Z,48.55
2018-07-20T16:56:23.939Z,48.50
2018-07-20T16:58:51.996Z,39.67
2018-07-20T17:01:20.060Z,60.67
2018-07-20T17:03:48.117Z,54.00
2018-07-20T17:06:16.172Z,41.80
2018-07-20T17:08:44.224Z,44.05
2018-07-20T17:11:12.265Z,34.67
2018-07-20T17:13:40.331Z,46.98
2018-07-20T17:16:08.371Z,42.03
2018-07-20T17:18:36.423Z,68.67
2018-07-20T17:21:04.476Z,54.48
2018-07-20T17:23:32.524Z,63.85
2018-07-20T17:26:00.676Z,45.25
2018-07-20T17:28:28.716Z,70.80
2018-07-20T17:30:56.764Z,59.42
2018-07-20T17:33:24.875Z,50.38
2018-07-20T17:35:52.937Z,35.95
2018-07-20T17:38:20.989Z,54.93
2018-07-20T17:40:49.067Z,52.73
2018-07-20T17:43:17.116Z,51.37
2018-07-20T17:45:45.215Z,34.53
2018-07-20T17:48:13.267Z,43.25
2018-07-20T17:50:41.349Z,36.88
2018-07-20T17:53:09.395Z,36.42
2018-07-20T17:55:37.487Z,41.58
2018-07-20T17:58:05.531Z,52.25
2018-07-20T18:00:33.608Z,54.03
2018-07-20T18:03:01.695Z,44.50
2018-07-20T18:05:30.096Z,48.63
2018-07-20T18:07:58.159Z,40.20
2018-07-20T18:10:26.226Z,51.05
2018-07-20T18:12:54.252Z,40.30
2018-07-20T18:15:22.380Z,70.52
2018-07-20T18:17:50.459Z,53.92
2018-07-20T18:20:18.484Z,64.80
2018-07-20T18:22:46.559Z,50.92
2018-07-20T18:25:15.479Z,52.08
2018-07-20T18:27:43.538Z,38.95
2018-07-20T18:30:11.591Z,41.68
2018-07-20T18:32:39.662Z,50.00
2018-07-20T18:35:07.716Z,39.40
2018-07-20T18:37:35.755Z,31.95
2018-07-20T18:40:03.820Z,41.65
2018-07-20T18:42:31.854Z,43.83
2018-07-20T18:44:59.904Z,35.85
2018-07-20T18:47:27.963Z,32.90
2018-07-20T18:49:56.019Z,40.03
2018-07-20T18:52:24.079Z,39.33
2018-07-20T18:54:52.115Z,31.93
2018-07-20T18:57:20.144Z,44.70
2018-07-20T18:59:48.220Z,49.20
2018-07-20T19:02:16.228Z,23.67
2018-07-20T19:04:44.286Z,26.10
2018-07-20T19:07:12.342Z,19.90
2018-07-20T19:09:40.400Z,15.80
2018-07-20T19:12:08.444Z,19.35
2018-07-20T19:14:36.492Z,13.60
2018-07-20T19:17:04.582Z,16.62
2018-07-20T19:19:32.604Z,25.72
2018-07-20T19:22:00.636Z,19.70
2018-07-20T19:24:28.712Z,21.82
2018-07-20T19:26:56.784Z,17.35
2018-07-20T19:29:24.825Z,18.35
2018-07-20T19:31:52.887Z,16.10
2018-07-20T19:34:20.980Z,13.10
2018-07-20T19:36:48.968Z,15.75
2018-07-20T19:39:17.008Z,18.35
2018-07-20T19:41:45.073Z,21.30
2018-07-20T19:44:13.112Z,18.57
2018-07-20T19:46:41.178Z,14.85
2018-07-20T19:49:09.256Z,23.00
2018-07-20T19:51:37.309Z,19.27
2018-07-20T19:54:05.512Z,16.93
2018-07-20T19:56:33.584Z,17.52
2018-07-20T19:59:01.648Z,18.65
2018-07-20T20:01:29.704Z,19.30
2018-07-20T20:03:57.776Z,14.63
2018-07-20T20:06:25.824Z,23.35
2018-07-20T20:08:53.863Z,14.07
2018-07-20T20:11:21.951Z,18.57
2018-07-20T20:13:50.020Z,19.35
2018-07-20T20:16:18.100Z,14.30
2018-07-20T20:18:46.150Z,14.13
2018-07-20T20:21:14.251Z,15.10
2018-07-20T20:23:42.311Z,15.58
2018-07-20T20:26:10.368Z,21.27
2018-07-20T20:28:38.427Z,13.03
2018-07-20T20:31:06.542Z,16.55
2018-07-20T20:33:34.580Z,11.40
2018-07-20T20:36:02.671Z,19.45
2018-07-20T20:38:30.704Z,17.52
2018-07-20T20:40:58.784Z,20.40
2018-07-20T20:43:26.992Z,15.38
2018-07-20T20:45:55.079Z,23.60
2018-07-20T20:48:23.128Z,16.50
2018-07-20T20:50:51.215Z,19.45
2018-07-20T20:53:19.232Z,19.65
2018-07-20T20:55:47.271Z,20.88
2018-07-20T20:58:15.320Z,20.52
2018-07-20T21:00:43.380Z,17.60
2018-07-20T21:03:11.441Z,15.18
2018-07-20T21:05:39.492Z,14.43
2018-07-20T21:08:07.524Z,19.77
2018-07-20T21:10:35.577Z,18.32
2018-07-20T21:13:04.437Z,28.12
2018-07-20T21:15:32.503Z,18.30
2018-07-20T21:18:00.545Z,23.52
2018-07-20T21:20:28.624Z,21.00
2018-07-20T21:22:56.692Z,15.72
2018-07-20T21:25:24.793Z,20.80
2018-07-20T21:27:52.836Z,23.25
2018-07-20T21:30:20.868Z,22.80
2018-07-20T21:32:48.944Z,19.02
2018-07-20T21:35:16.980Z,25.70
2018-07-20T21:37:45.053Z,23.90
2018-07-20T21:40:13.118Z,19.23
2018-07-20T21:42:41.184Z,18.40
2018-07-20T21:45:09.219Z,15.40
2018-07-20T21:47:37.259Z,17.32
2018-07-20T21:50:05.319Z,16.35
2018-07-20T21:52:33.380Z,14.33
2018-07-20T21:55:01.645Z,16.07
2018-07-20T21:57:29.751Z,15.30
2018-07-20T21:59:57.787Z,18.50
2018-07-20T22:02:25.842Z,15.53
2018-07-20T22:04:53.949Z,16.77
2018-07-20T22:07:21.992Z,13.40
2018-07-20T22:09:50.024Z,10.70
2018-07-20T22:12:18.132Z,13.10
2018-07-20T22:14:46.167Z,11.05
2018-07-20T22:17:14.236Z,13.78
2018-07-20T22:19:42.280Z,14.95
2018-07-20T22:22:10.327Z,15.40
2018-07-20T22:24:38.396Z,13.65
2018-07-20T22:27:06.435Z,10.18
2018-07-20T22:29:34.499Z,11.57
2018-07-20T22:32:02.540Z,7.45
2018-07-20T22:34:30.576Z,11.03
2018-07-20T22:36:58.639Z,11.43
2018-07-20T22:39:26.676Z,15.00
2018-07-20T22:41:54.739Z,11.43
2018-07-20T22:44:22.804Z,12.05
2018-07-20T22:46:50.871Z,10.32
2018-07-20T22:49:18.903Z,11.00
2018-07-20T22:51:46.959Z,11.30
2018-07-20T22:54:15.008Z,13.40
2018-07-20T22:56:43.052Z,11.78
2018-07-20T22:59:11.127Z,13.93
2018-07-20T23:01:39.199Z,11.15
2018-07-20T23:04:07.244Z,11.48
2018-07-20T23:06:35.300Z,14.70
2018-07-20T23:09:03.960Z,8.10
2018-07-20T23:11:31.991Z,7.03
2018-07-20T23:14:00.037Z,10.65
2018-07-20T23:16:28.068Z,12.28
2018-07-20T23:18:56.113Z,12.88
2018-07-20T23:21:24.169Z,10.48
2018-07-20T23:23:52.212Z,9.93
2018-07-20T23:26:20.243Z,10.13
2018-07-20T23:28:48.285Z,8.00
2018-07-20T23:31:16.320Z,5.85
2018-07-20T23:33:44.362Z,9.00
2018-07-20T23:36:12.407Z,9.70
2018-07-20T23:38:40.476Z,9.00
2018-07-20T23:41:08.508Z,44.03
2018-07-20T23:43:36.555Z,10.95
2018-07-20T23:46:04.585Z,9.15
2018-07-20T23:48:32.636Z,14.15
2018-07-20T23:51:00.728Z,9.63
2018-07-20T23:53:28.760Z,8.33
2018-07-20T23:55:56.823Z,9.58
2018-07-20T23:58:24.868Z,10.78
